createdAt,value
2019-02-15T00:00:42.464Z,1028.78
2019-02-15T00:01:42.975Z,1028.75
2019-02-15T00:02:42.467Z,1028.77
2019-02-15T00:03:42.865Z,1028.75
2019-02-15T00:04:42.759Z,1028.76
2019-02-15T00:05:42.653Z,1028.75
2019-02-15T00:07:42.854Z,1028.73
2019-02-15T00:08:42.626Z,1028.73
2019-02-15T00:09:42.420Z,1028.69
2019-02-15T00:10:42.404Z,1028.68
2019-02-15T00:11:43.109Z,1028.70
2019-02-15T00:12:42.807Z,1028.73
2019-02-15T00:13:43.385Z,1028.72
2019-02-15T00:15:42.360Z,1028.72
2019-02-15T00:16:42.361Z,1028.69
2019-02-15T00:17:42.569Z,1028.73
2019-02-15T00:18:42.333Z,1028.73
2019-02-15T00:19:42.539Z,1028.72
2019-02-15T00:20:42.537Z,1028.75
2019-02-15T00:21:42.728Z,1028.73
2019-02-15T00:22:42.333Z,1028.74
2019-02-15T00:25:43.925Z,1028.72
2019-02-15T00:27:42.293Z,1028.70
2019-02-15T00:28:42.920Z,1028.71
2019-02-15T00:29:42.478Z,1028.70
2019-02-15T00:32:42.766Z,1028.73
2019-02-15T00:33:42.675Z,1028.71
2019-02-15T00:34:42.981Z,1028.71
2019-02-15T00:35:42.659Z,1028.75
2019-02-15T00:36:42.219Z,1028.72
2019-02-15T00:38:42.824Z,1028.64
2019-02-15T00:39:42.419Z,1028.70
2019-02-15T00:40:42.199Z,1028.69
2019-02-15T00:43:42.399Z,1028.63
2019-02-15T00:45:42.189Z,1028.64
2019-02-15T00:46:42.382Z,1028.65
2019-02-15T00:47:42.582Z,1028.67
2019-02-15T00:49:42.162Z,1028.65
2019-02-15T00:50:42.139Z,1028.69
2019-02-15T00:51:42.143Z,1028.67
2019-02-15T00:52:42.134Z,1028.63
2019-02-15T00:53:42.525Z,1028.72
2019-02-15T00:54:42.123Z,1028.63
2019-02-15T00:55:42.114Z,1028.64
2019-02-15T00:57:42.409Z,1028.66
2019-02-15T00:58:43.003Z,1028.63
2019-02-15T00:59:42.281Z,1028.60
2019-02-15T01:00:42.484Z,1028.65
2019-02-15T01:01:42.460Z,1028.64
2019-02-15T01:02:42.076Z,1028.65
2019-02-15T01:03:42.077Z,1028.62
2019-02-15T01:04:42.076Z,1028.62
2019-02-15T01:05:42.245Z,1028.63
2019-02-15T01:06:42.452Z,1028.61
2019-02-15T01:08:42.019Z,1028.60
2019-02-15T01:09:42.735Z,1028.61
2019-02-15T01:10:42.032Z,1028.59
2019-02-15T01:11:42.431Z,1028.66
2019-02-15T01:12:42.198Z,1028.63
2019-02-15T01:13:42.708Z,1028.59
2019-02-15T01:14:41.991Z,1028.58
2019-02-15T01:15:42.906Z,1028.57
2019-02-15T01:16:41.990Z,1028.55
2019-02-15T01:19:41.956Z,1028.55
2019-02-15T01:20:42.877Z,1028.56
2019-02-15T01:22:41.958Z,1028.52
2019-02-15T01:25:42.433Z,1028.53
2019-02-15T01:26:41.934Z,1028.49
2019-02-15T01:28:42.241Z,1028.51
2019-02-15T01:29:42.122Z,1028.46
2019-02-15T01:31:42.125Z,1028.49
2019-02-15T01:32:41.906Z,1028.45
2019-02-15T01:35:42.193Z,1028.44
2019-02-15T01:36:41.875Z,1028.46
2019-02-15T01:37:42.374Z,1028.47
2019-02-15T01:38:42.055Z,1028.40
2019-02-15T01:39:42.564Z,1028.41
2019-02-15T01:40:41.862Z,1028.39
2019-02-15T01:42:44.065Z,1028.42
2019-02-15T01:43:42.221Z,1028.38
2019-02-15T01:46:42.228Z,1028.38
2019-02-15T01:48:41.807Z,1028.29
2019-02-15T01:49:41.786Z,1028.32
2019-02-15T01:51:41.778Z,1028.31
2019-02-15T01:53:41.783Z,1028.26
2019-02-15T01:57:42.155Z,1028.24
2019-02-15T01:58:41.729Z,1028.25
2019-02-15T01:59:41.728Z,1028.21
2019-02-15T02:00:41.735Z,1028.20
2019-02-15T02:01:41.706Z,1028.19
2019-02-15T02:02:42.112Z,1028.21
2019-02-15T02:03:41.923Z,1028.16
2019-02-15T02:04:42.092Z,1028.16
2019-02-15T02:07:41.683Z,1028.15
2019-02-15T02:08:41.675Z,1028.12
2019-02-15T02:10:42.057Z,1028.11
2019-02-15T02:11:41.862Z,1028.12
2019-02-15T02:13:49.257Z,1028.07
2019-02-15T02:15:41.635Z,1028.07
2019-02-15T02:16:41.623Z,1028.03
2019-02-15T02:17:41.632Z,1028.01
2019-02-15T02:18:41.811Z,1028.05
2019-02-15T02:20:41.610Z,1028.01
2019-02-15T02:21:41.612Z,1028.01
2019-02-15T02:22:41.987Z,1028.02
2019-02-15T02:24:41.799Z,1027.99
2019-02-15T02:25:41.988Z,1028.01
2019-02-15T02:27:41.582Z,1027.99
2019-02-15T02:28:41.569Z,1027.99
2019-02-15T02:30:41.760Z,1027.95
2019-02-15T02:31:41.526Z,1027.98
2019-02-15T02:34:42.258Z,1027.97
2019-02-15T02:35:41.532Z,1027.99
2019-02-15T02:36:41.723Z,1027.95
2019-02-15T02:37:41.516Z,1027.93
2019-02-15T02:39:41.823Z,1027.93
2019-02-15T02:40:44.506Z,1027.92
2019-02-15T02:41:41.895Z,1027.92
2019-02-15T02:43:41.475Z,1027.91
2019-02-15T02:44:41.659Z,1027.96
2019-02-15T02:45:41.663Z,1027.94
2019-02-15T02:46:41.440Z,1027.92
2019-02-15T02:47:41.655Z,1027.92
2019-02-15T02:48:41.431Z,1027.92
2019-02-15T02:49:41.436Z,1027.93
2019-02-15T02:50:41.654Z,1027.90
2019-02-15T02:51:42.224Z,1027.92
2019-02-15T02:53:41.625Z,1027.90
2019-02-15T02:54:41.623Z,1027.87
2019-02-15T02:55:41.379Z,1027.89
2019-02-15T02:56:41.874Z,1027.86
2019-02-15T02:58:41.387Z,1027.85
2019-02-15T02:59:41.985Z,1027.90
2019-02-15T03:00:41.774Z,1027.84
2019-02-15T03:01:41.351Z,1027.86
2019-02-15T03:02:41.758Z,1027.86
2019-02-15T03:03:41.962Z,1027.86
2019-02-15T03:04:42.353Z,1027.84
2019-02-15T03:06:41.347Z,1027.87
2019-02-15T03:07:41.532Z,1027.82
2019-02-15T03:08:41.297Z,1027.79
2019-02-15T03:09:41.292Z,1027.80
2019-02-15T03:10:41.323Z,1027.78
2019-02-15T03:11:41.806Z,1027.78
2019-02-15T03:13:41.486Z,1027.82
2019-02-15T03:14:41.498Z,1027.82
2019-02-15T03:16:41.255Z,1027.80
2019-02-15T03:17:41.250Z,1027.82
2019-02-15T03:18:41.738Z,1027.83
2019-02-15T03:19:41.650Z,1027.78
2019-02-15T03:20:41.666Z,1027.79
2019-02-15T03:21:41.435Z,1027.73
2019-02-15T03:22:41.223Z,1027.75
2019-02-15T03:23:41.409Z,1027.74
2019-02-15T03:24:41.214Z,1027.77
2019-02-15T03:25:41.241Z,1027.77
2019-02-15T03:27:41.191Z,1027.72
2019-02-15T03:28:41.598Z,1027.73
2019-02-15T03:29:41.407Z,1027.67
2019-02-15T03:30:41.502Z,1027.67
2019-02-15T03:31:41.381Z,1027.69
2019-02-15T03:32:41.168Z,1027.69
2019-02-15T03:34:41.571Z,1027.64
2019-02-15T03:36:41.352Z,1027.67
2019-02-15T03:37:41.145Z,1027.61
2019-02-15T03:38:41.130Z,1027.61
2019-02-15T03:39:41.116Z,1027.61
2019-02-15T03:40:41.115Z,1027.56
2019-02-15T03:41:41.715Z,1027.57
2019-02-15T03:43:41.402Z,1027.53
2019-02-15T03:44:42.191Z,1027.55
2019-02-15T03:45:41.074Z,1027.57
2019-02-15T03:47:41.062Z,1027.55
2019-02-15T03:49:41.057Z,1027.61
2019-02-15T03:50:41.062Z,1027.61
2019-02-15T03:51:41.249Z,1027.57
2019-02-15T03:52:41.029Z,1027.61
2019-02-15T03:53:41.023Z,1027.57
2019-02-15T03:54:41.228Z,1027.58
2019-02-15T03:57:40.996Z,1027.58
2019-02-15T03:58:41.204Z,1027.54
2019-02-15T03:59:41.606Z,1027.55
2019-02-15T04:00:41.173Z,1027.58
2019-02-15T04:01:41.767Z,1027.56
2019-02-15T04:02:41.189Z,1027.57
2019-02-15T04:04:41.247Z,1027.55
2019-02-15T04:05:41.628Z,1027.56
2019-02-15T04:06:41.157Z,1027.52
2019-02-15T04:09:40.908Z,1027.53
2019-02-15T04:10:40.909Z,1027.54
2019-02-15T04:11:41.106Z,1027.53
2019-02-15T04:12:41.309Z,1027.51
2019-02-15T04:14:41.479Z,1027.49
2019-02-15T04:17:41.467Z,1027.50
2019-02-15T04:18:41.244Z,1027.47
2019-02-15T04:19:41.142Z,1027.45
2019-02-15T04:20:41.065Z,1027.46
2019-02-15T04:21:40.833Z,1027.46
2019-02-15T04:23:41.208Z,1027.50
2019-02-15T04:24:41.524Z,1027.47
2019-02-15T04:25:41.018Z,1027.46
2019-02-15T04:28:41.474Z,1027.50
2019-02-15T04:29:40.773Z,1027.49
2019-02-15T04:30:40.775Z,1027.51
2019-02-15T04:32:40.993Z,1027.51
2019-02-15T04:33:40.767Z,1027.47
2019-02-15T04:34:40.757Z,1027.45
2019-02-15T04:35:41.348Z,1027.47
2019-02-15T04:37:41.408Z,1027.43
2019-02-15T04:38:40.921Z,1027.46
2019-02-15T04:40:40.695Z,1027.45
2019-02-15T04:42:40.698Z,1027.41
2019-02-15T04:43:40.873Z,1027.44
2019-02-15T04:45:40.893Z,1027.43
2019-02-15T04:46:40.663Z,1027.46
2019-02-15T04:47:40.666Z,1027.43
2019-02-15T04:48:40.844Z,1027.43
2019-02-15T04:52:41.437Z,1027.45
2019-02-15T04:53:40.616Z,1027.48
2019-02-15T04:54:40.993Z,1027.49
2019-02-15T04:55:40.608Z,1027.45
2019-02-15T04:56:41.113Z,1027.47
2019-02-15T04:57:40.781Z,1027.48
2019-02-15T04:59:40.771Z,1027.49
2019-02-15T05:00:40.963Z,1027.46
2019-02-15T05:02:41.458Z,1027.48
2019-02-15T05:04:40.539Z,1027.46
2019-02-15T05:05:42.038Z,1027.43
2019-02-15T05:06:40.509Z,1027.45
2019-02-15T05:07:40.521Z,1027.46
2019-02-15T05:09:40.803Z,1027.42
2019-02-15T05:10:40.555Z,1027.48
2019-02-15T05:11:40.470Z,1027.46
2019-02-15T05:12:40.472Z,1027.46
2019-02-15T05:13:40.485Z,1027.50
2019-02-15T05:16:40.471Z,1027.42
2019-02-15T05:18:40.595Z,1027.44
2019-02-15T05:19:40.457Z,1027.42
2019-02-15T05:22:40.830Z,1027.42
2019-02-15T05:24:40.405Z,1027.44
2019-02-15T05:25:40.585Z,1027.40
2019-02-15T05:26:40.987Z,1027.41
2019-02-15T05:27:40.371Z,1027.41
2019-02-15T05:28:40.359Z,1027.41
2019-02-15T05:30:40.353Z,1027.41
2019-02-15T05:31:40.559Z,1027.40
2019-02-15T05:33:40.328Z,1027.40
2019-02-15T05:34:40.630Z,1027.42
2019-02-15T05:35:40.330Z,1027.39
2019-02-15T05:36:40.324Z,1027.39
2019-02-15T05:37:40.299Z,1027.41
2019-02-15T05:38:41.353Z,1027.34
2019-02-15T05:40:40.584Z,1027.35
2019-02-15T05:41:40.979Z,1027.38
2019-02-15T05:42:40.278Z,1027.33
2019-02-15T05:43:40.462Z,1027.35
2019-02-15T05:44:40.235Z,1027.35
2019-02-15T05:45:40.753Z,1027.34
2019-02-15T05:46:40.230Z,1027.34
2019-02-15T05:47:40.948Z,1027.40
2019-02-15T05:48:40.422Z,1027.40
2019-02-15T05:49:41.017Z,1027.37
2019-02-15T05:52:41.318Z,1027.36
2019-02-15T05:53:40.174Z,1027.35
2019-02-15T05:54:40.193Z,1027.42
2019-02-15T05:56:40.477Z,1027.44
2019-02-15T05:58:40.463Z,1027.42
2019-02-15T05:59:40.357Z,1027.43
2019-02-15T06:00:40.357Z,1027.42
2019-02-15T06:01:40.376Z,1027.46
2019-02-15T06:05:40.102Z,1027.47
2019-02-15T06:07:40.295Z,1027.48
2019-02-15T06:08:40.079Z,1027.48
2019-02-15T06:10:40.058Z,1027.47
2019-02-15T06:11:40.257Z,1027.47
2019-02-15T06:12:40.064Z,1027.43
2019-02-15T06:14:40.126Z,1027.44
2019-02-15T06:16:40.042Z,1027.45
2019-02-15T06:17:40.219Z,1027.45
2019-02-15T06:18:40.632Z,1027.44
2019-02-15T06:19:40.002Z,1027.45
2019-02-15T06:20:40.190Z,1027.43
2019-02-15T06:21:40.005Z,1027.46
2019-02-15T06:22:39.979Z,1027.46
2019-02-15T06:23:39.968Z,1027.44
2019-02-15T06:24:39.969Z,1027.44
2019-02-15T06:26:39.953Z,1027.42
2019-02-15T06:27:40.154Z,1027.45
2019-02-15T06:28:39.940Z,1027.44
2019-02-15T06:29:40.141Z,1027.41
2019-02-15T06:30:40.423Z,1027.40
2019-02-15T06:31:40.121Z,1027.41
2019-02-15T06:32:40.113Z,1027.42
2019-02-15T06:35:40.272Z,1027.41
2019-02-15T06:36:39.886Z,1027.42
2019-02-15T06:37:39.889Z,1027.44
2019-02-15T06:38:40.068Z,1027.44
2019-02-15T06:39:39.879Z,1027.44
2019-02-15T06:40:39.851Z,1027.47
2019-02-15T06:41:40.046Z,1027.49
2019-02-15T06:43:40.037Z,1027.52
2019-02-15T06:45:40.071Z,1027.53
2019-02-15T06:46:39.838Z,1027.51
2019-02-15T06:47:39.796Z,1027.47
2019-02-15T06:48:39.794Z,1027.49
2019-02-15T06:49:39.797Z,1027.52
2019-02-15T06:50:39.790Z,1027.53
2019-02-15T06:51:40.008Z,1027.52
2019-02-15T06:52:40.374Z,1027.54
2019-02-15T06:53:39.771Z,1027.55
2019-02-15T06:54:39.761Z,1027.56
2019-02-15T06:55:40.161Z,1027.59
2019-02-15T06:56:40.045Z,1027.62
2019-02-15T06:57:41.368Z,1027.63
2019-02-15T06:58:45.506Z,1027.62
2019-02-15T06:59:39.704Z,1027.66
2019-02-15T07:01:39.905Z,1027.67
2019-02-15T07:02:39.906Z,1027.65
2019-02-15T07:04:39.686Z,1027.69
2019-02-15T07:05:39.704Z,1027.67
2019-02-15T07:06:39.887Z,1027.67
2019-02-15T07:07:39.671Z,1027.64
2019-02-15T07:08:40.072Z,1027.65
2019-02-15T07:09:39.846Z,1027.70
2019-02-15T07:10:40.245Z,1027.66
2019-02-15T07:11:39.646Z,1027.65
2019-02-15T07:12:39.852Z,1027.67
2019-02-15T07:13:39.640Z,1027.66
2019-02-15T07:14:39.821Z,1027.66
2019-02-15T07:15:39.800Z,1027.67
2019-02-15T07:16:39.605Z,1027.66
2019-02-15T07:17:40.078Z,1027.68
2019-02-15T07:18:39.593Z,1027.67
2019-02-15T07:19:39.770Z,1027.68
2019-02-15T07:20:39.567Z,1027.73
2019-02-15T07:21:39.787Z,1027.69
2019-02-15T07:22:39.556Z,1027.70
2019-02-15T07:23:39.955Z,1027.70
2019-02-15T07:24:40.345Z,1027.72
2019-02-15T07:27:39.512Z,1027.70
2019-02-15T07:28:40.430Z,1027.74
2019-02-15T07:29:39.714Z,1027.72
2019-02-15T07:30:39.807Z,1027.75
2019-02-15T07:31:39.696Z,1027.73
2019-02-15T07:32:39.487Z,1027.73
2019-02-15T07:33:39.859Z,1027.76
2019-02-15T07:34:39.470Z,1027.72
2019-02-15T07:35:40.069Z,1027.73
2019-02-15T07:37:39.456Z,1027.73
2019-02-15T07:38:39.662Z,1027.77
2019-02-15T07:39:39.664Z,1027.70
2019-02-15T07:40:40.437Z,1027.74
2019-02-15T07:41:39.843Z,1027.73
2019-02-15T07:43:40.111Z,1027.73
2019-02-15T07:44:39.604Z,1027.75
2019-02-15T07:45:42.803Z,1027.72
2019-02-15T07:46:39.584Z,1027.74
2019-02-15T07:47:39.382Z,1027.70
2019-02-15T07:48:39.550Z,1027.70
2019-02-15T07:50:39.354Z,1027.72
2019-02-15T07:51:40.056Z,1027.73
2019-02-15T07:52:39.550Z,1027.75
2019-02-15T07:53:39.334Z,1027.73
2019-02-15T07:54:40.140Z,1027.73
2019-02-15T07:55:39.737Z,1027.74
2019-02-15T07:56:39.522Z,1027.79
2019-02-15T07:57:39.309Z,1027.76
2019-02-15T07:59:39.505Z,1027.79
2019-02-15T08:01:39.307Z,1027.82
2019-02-15T08:02:39.269Z,1027.82
2019-02-15T08:03:39.290Z,1027.79
2019-02-15T08:05:39.245Z,1027.83
2019-02-15T08:07:39.256Z,1027.77
2019-02-15T08:08:39.728Z,1027.81
2019-02-15T08:10:40.031Z,1027.75
2019-02-15T08:12:39.401Z,1027.79
2019-02-15T08:13:39.193Z,1027.78
2019-02-15T08:14:39.390Z,1027.77
2019-02-15T08:16:39.178Z,1027.78
2019-02-15T08:17:39.177Z,1027.78
2019-02-15T08:18:39.363Z,1027.74
2019-02-15T08:19:39.171Z,1027.75
2019-02-15T08:22:39.758Z,1027.77
2019-02-15T08:23:39.137Z,1027.76
2019-02-15T08:25:39.334Z,1027.72
2019-02-15T08:26:39.115Z,1027.71
2019-02-15T08:27:39.327Z,1027.68
2019-02-15T08:28:39.106Z,1027.67
2019-02-15T08:29:39.397Z,1027.66
2019-02-15T08:30:39.306Z,1027.67
2019-02-15T08:33:39.470Z,1027.63
2019-02-15T08:34:39.058Z,1027.61
2019-02-15T08:35:39.063Z,1027.61
2019-02-15T08:36:39.257Z,1027.65
2019-02-15T08:37:39.553Z,1027.59
2019-02-15T08:38:39.047Z,1027.56
2019-02-15T08:40:39.047Z,1027.51
2019-02-15T08:41:39.020Z,1027.53
2019-02-15T08:43:39.206Z,1027.51
2019-02-15T08:44:39.011Z,1027.54
2019-02-15T08:45:39.396Z,1027.51
2019-02-15T08:46:38.992Z,1027.50
2019-02-15T08:48:45.927Z,1027.49
2019-02-15T08:49:39.389Z,1027.49
2019-02-15T08:51:39.362Z,1027.48
2019-02-15T08:54:39.146Z,1027.53
2019-02-15T08:55:39.400Z,1027.49
2019-02-15T08:56:39.131Z,1027.50
2019-02-15T08:57:39.651Z,1027.52
2019-02-15T08:58:39.147Z,1027.52
2019-02-15T08:59:39.130Z,1027.56
2019-02-15T09:01:39.128Z,1027.56
2019-02-15T09:02:38.891Z,1027.59
2019-02-15T09:03:38.893Z,1027.57
2019-02-15T09:04:38.901Z,1027.54
2019-02-15T09:06:39.101Z,1027.56
2019-02-15T09:08:38.868Z,1027.55
2019-02-15T09:09:39.387Z,1027.54
2019-02-15T09:10:39.068Z,1027.49
2019-02-15T09:11:38.861Z,1027.52
2019-02-15T09:12:39.048Z,1027.50
2019-02-15T09:13:39.065Z,1027.50
2019-02-15T09:14:39.352Z,1027.48
2019-02-15T09:15:39.446Z,1027.50
2019-02-15T09:16:38.830Z,1027.45
2019-02-15T09:18:38.826Z,1027.47
2019-02-15T09:20:39.119Z,1027.40
2019-02-15T09:21:38.807Z,1027.41
2019-02-15T09:22:39.401Z,1027.43
2019-02-15T09:23:39.428Z,1027.41
2019-02-15T09:24:38.784Z,1027.43
2019-02-15T09:27:38.978Z,1027.36
2019-02-15T09:28:38.783Z,1027.38
2019-02-15T09:31:38.974Z,1027.38
2019-02-15T09:32:38.757Z,1027.39
2019-02-15T09:33:38.951Z,1027.34
2019-02-15T09:34:39.655Z,1027.38
2019-02-15T09:35:39.152Z,1027.37
2019-02-15T09:38:39.454Z,1027.37
2019-02-15T09:40:38.748Z,1027.33
2019-02-15T09:43:38.696Z,1027.39
2019-02-15T09:45:38.683Z,1027.29
2019-02-15T09:46:38.879Z,1027.37
2019-02-15T09:47:38.682Z,1027.34
2019-02-15T09:48:39.221Z,1027.35
2019-02-15T09:49:38.895Z,1027.34
2019-02-15T09:50:38.686Z,1027.32
2019-02-15T09:52:38.664Z,1027.30
2019-02-15T09:53:39.181Z,1027.29
2019-02-15T09:54:39.088Z,1027.28
2019-02-15T09:55:39.168Z,1027.29
2019-02-15T09:57:38.656Z,1027.30
2019-02-15T09:59:38.860Z,1027.32
2019-02-15T10:01:38.835Z,1027.24
2019-02-15T10:02:39.531Z,1027.25
2019-02-15T10:03:38.634Z,1027.25
2019-02-15T10:04:38.811Z,1027.22
2019-02-15T10:05:39.218Z,1027.21
2019-02-15T10:06:38.920Z,1027.17
2019-02-15T10:07:39.616Z,1027.24
2019-02-15T10:08:38.622Z,1027.19
2019-02-15T10:11:38.794Z,1027.25
2019-02-15T10:12:38.795Z,1027.29
2019-02-15T10:16:38.575Z,1027.27
2019-02-15T10:17:39.198Z,1027.23
2019-02-15T10:19:38.557Z,1027.26
2019-02-15T10:21:38.563Z,1027.22
2019-02-15T10:24:38.555Z,1027.25
2019-02-15T10:25:38.855Z,1027.22
2019-02-15T10:26:38.721Z,1027.27
2019-02-15T10:27:38.530Z,1027.31
2019-02-15T10:28:38.534Z,1027.23
2019-02-15T10:29:38.535Z,1027.23
2019-02-15T10:30:38.554Z,1027.26
2019-02-15T10:31:38.526Z,1027.24
2019-02-15T10:32:38.918Z,1027.23
2019-02-15T10:33:38.543Z,1027.22
2019-02-15T10:34:38.522Z,1027.22
2019-02-15T10:36:38.504Z,1027.21
2019-02-15T10:37:38.896Z,1027.18
2019-02-15T10:38:38.507Z,1027.18
2019-02-15T10:39:38.520Z,1027.20
2019-02-15T10:40:38.719Z,1027.20
2019-02-15T10:41:38.507Z,1027.17
2019-02-15T10:43:39.414Z,1027.16
2019-02-15T10:44:38.938Z,1027.18
2019-02-15T10:45:38.683Z,1027.14
2019-02-15T10:46:39.186Z,1027.14
2019-02-15T10:47:38.473Z,1027.19
2019-02-15T10:48:38.477Z,1027.16
2019-02-15T10:49:39.374Z,1027.16
2019-02-15T10:52:38.514Z,1027.13
2019-02-15T10:53:38.679Z,1027.16
2019-02-15T10:54:38.665Z,1027.17
2019-02-15T10:56:38.859Z,1027.09
2019-02-15T10:57:38.438Z,1027.00
2019-02-15T10:58:38.442Z,1027.09
2019-02-15T10:59:38.624Z,1027.04
2019-02-15T11:00:38.452Z,1027.10
2019-02-15T11:01:38.448Z,1027.03
2019-02-15T11:02:38.636Z,1027.02
2019-02-15T11:03:38.422Z,1027.07
2019-02-15T11:04:38.689Z,1027.05
2019-02-15T11:05:38.436Z,1027.04
2019-02-15T11:06:38.420Z,1027.03
2019-02-15T11:07:38.419Z,1027.00
2019-02-15T11:08:38.400Z,1026.98
2019-02-15T11:09:38.602Z,1027.04
2019-02-15T11:10:38.394Z,1027.00
2019-02-15T11:11:38.407Z,1026.96
2019-02-15T11:12:38.601Z,1026.97
2019-02-15T11:13:38.409Z,1026.98
2019-02-15T11:14:38.404Z,1026.99
2019-02-15T11:15:38.383Z,1026.88
2019-02-15T11:16:46.812Z,1026.89
2019-02-15T11:17:38.580Z,1026.89
2019-02-15T11:18:38.585Z,1026.92
2019-02-15T11:19:38.356Z,1026.85
2019-02-15T11:20:38.562Z,1026.86
2019-02-15T11:21:38.355Z,1026.78
2019-02-15T11:22:38.362Z,1026.81
2019-02-15T11:23:38.345Z,1026.85
2019-02-15T11:24:38.345Z,1026.81
2019-02-15T11:25:38.355Z,1026.83
2019-02-15T11:26:38.559Z,1026.83
2019-02-15T11:27:38.562Z,1026.79
2019-02-15T11:28:38.333Z,1026.84
2019-02-15T11:29:38.345Z,1026.75
2019-02-15T11:30:38.313Z,1026.77
2019-02-15T11:31:38.321Z,1026.75
2019-02-15T11:32:38.327Z,1026.77
2019-02-15T11:33:38.305Z,1026.76
2019-02-15T11:34:38.301Z,1026.78
2019-02-15T11:35:38.308Z,1026.81
2019-02-15T11:36:38.310Z,1026.78
2019-02-15T11:37:38.493Z,1026.78
2019-02-15T11:38:38.283Z,1026.78
2019-02-15T11:39:38.491Z,1026.74
2019-02-15T11:40:38.278Z,1026.78
2019-02-15T11:41:38.469Z,1026.73
2019-02-15T11:42:38.477Z,1026.73
2019-02-15T11:43:38.287Z,1026.67
2019-02-15T11:44:38.257Z,1026.70
2019-02-15T11:45:38.255Z,1026.66
2019-02-15T11:46:38.450Z,1026.64
2019-02-15T11:47:38.247Z,1026.65
2019-02-15T11:48:38.261Z,1026.60
2019-02-15T11:49:38.241Z,1026.59
2019-02-15T11:50:38.237Z,1026.58
2019-02-15T11:51:38.247Z,1026.57
2019-02-15T11:52:38.222Z,1026.59
2019-02-15T11:53:38.219Z,1026.56
2019-02-15T11:54:38.222Z,1026.57
2019-02-15T11:55:38.410Z,1026.52
2019-02-15T11:56:38.222Z,1026.53
2019-02-15T11:57:38.212Z,1026.50
2019-02-15T11:58:38.435Z,1026.51
2019-02-15T11:59:38.413Z,1026.43
2019-02-15T12:00:38.195Z,1026.42
2019-02-15T12:01:38.204Z,1026.44
2019-02-15T12:02:38.186Z,1026.41
2019-02-15T12:03:38.184Z,1026.40
2019-02-15T12:04:38.379Z,1026.39
2019-02-15T12:05:38.199Z,1026.35
2019-02-15T12:06:38.176Z,1026.36
2019-02-15T12:07:38.177Z,1026.34
2019-02-15T12:08:38.363Z,1026.34
2019-02-15T12:09:38.149Z,1026.37
2019-02-15T12:10:38.151Z,1026.34
2019-02-15T12:11:38.154Z,1026.29
2019-02-15T12:12:38.147Z,1026.32
2019-02-15T12:13:38.152Z,1026.25
2019-02-15T12:14:38.143Z,1026.28
2019-02-15T12:15:38.332Z,1026.20
2019-02-15T12:16:38.726Z,1026.25
2019-02-15T12:17:38.141Z,1026.24
2019-02-15T12:18:38.113Z,1026.22
2019-02-15T12:19:38.112Z,1026.24
2019-02-15T12:20:38.120Z,1026.21
2019-02-15T12:21:38.133Z,1026.22
2019-02-15T12:22:38.100Z,1026.17
2019-02-15T12:23:38.313Z,1026.17
2019-02-15T12:24:38.092Z,1026.17
2019-02-15T12:25:38.308Z,1026.14
2019-02-15T12:26:38.090Z,1026.13
2019-02-15T12:27:38.097Z,1026.08
2019-02-15T12:28:38.286Z,1026.07
2019-02-15T12:29:38.308Z,1026.08
2019-02-15T12:30:38.114Z,1025.99
2019-02-15T12:31:38.071Z,1026.03
2019-02-15T12:32:38.063Z,1025.98
2019-02-15T12:33:38.267Z,1026.00
2019-02-15T12:34:38.066Z,1025.99
2019-02-15T12:35:38.053Z,1025.94
2019-02-15T12:36:38.059Z,1025.93
2019-02-15T12:37:38.038Z,1025.98
2019-02-15T12:38:38.046Z,1025.93
2019-02-15T12:39:38.048Z,1025.96
2019-02-15T12:40:38.055Z,1025.93
2019-02-15T12:41:38.228Z,1025.91
2019-02-15T12:42:38.092Z,1025.90
2019-02-15T12:43:38.013Z,1025.84
2019-02-15T12:44:38.027Z,1025.86
2019-02-15T12:45:38.022Z,1025.83
2019-02-15T12:46:38.018Z,1025.83
2019-02-15T12:47:38.206Z,1025.77
2019-02-15T12:48:38.076Z,1025.78
2019-02-15T12:49:37.991Z,1025.76
2019-02-15T12:50:38.011Z,1025.71
2019-02-15T12:51:37.989Z,1025.74
2019-02-15T12:52:37.979Z,1025.75
2019-02-15T12:53:38.184Z,1025.71
2019-02-15T12:54:37.970Z,1025.67
2019-02-15T12:55:37.971Z,1025.67
2019-02-15T12:56:37.966Z,1025.69
2019-02-15T12:57:38.175Z,1025.69
2019-02-15T12:58:37.961Z,1025.65
2019-02-15T12:59:38.160Z,1025.61
2019-02-15T13:00:37.951Z,1025.59
2019-02-15T13:01:37.943Z,1025.60
2019-02-15T13:02:37.954Z,1025.57
2019-02-15T13:03:37.937Z,1025.55
2019-02-15T13:04:37.956Z,1025.50
2019-02-15T13:05:37.941Z,1025.49
2019-02-15T13:06:38.138Z,1025.42
2019-02-15T13:07:37.924Z,1025.46
2019-02-15T13:08:38.124Z,1025.42
2019-02-15T13:09:37.933Z,1025.46
2019-02-15T13:10:37.914Z,1025.42
2019-02-15T13:11:37.925Z,1025.40
2019-02-15T13:12:37.913Z,1025.39
2019-02-15T13:13:37.916Z,1025.44
2019-02-15T13:14:37.917Z,1025.35
2019-02-15T13:15:38.097Z,1025.34
2019-02-15T13:16:37.907Z,1025.36
2019-02-15T13:17:37.942Z,1025.33
2019-02-15T13:18:37.895Z,1025.32
2019-02-15T13:19:38.094Z,1025.33
2019-02-15T13:20:38.083Z,1025.32
2019-02-15T13:21:37.879Z,1025.28
2019-02-15T13:22:38.088Z,1025.28
2019-02-15T13:23:37.872Z,1025.23
2019-02-15T13:24:37.861Z,1025.24
2019-02-15T13:25:38.070Z,1025.19
2019-02-15T13:26:37.868Z,1025.19
2019-02-15T13:27:37.883Z,1025.18
2019-02-15T13:28:37.870Z,1025.20
2019-02-15T13:29:38.058Z,1025.18
2019-02-15T13:30:37.860Z,1025.18
2019-02-15T13:31:37.855Z,1025.10
2019-02-15T13:32:37.841Z,1025.11
2019-02-15T13:33:37.839Z,1025.05
2019-02-15T13:34:37.853Z,1025.08
2019-02-15T13:35:37.819Z,1025.02
2019-02-15T13:36:37.819Z,1024.98
2019-02-15T13:37:37.834Z,1024.96
2019-02-15T13:38:37.816Z,1025.00
2019-02-15T13:39:37.817Z,1024.91
2019-02-15T13:40:38.009Z,1024.94
2019-02-15T13:41:37.803Z,1024.92
2019-02-15T13:42:37.981Z,1024.91
2019-02-15T13:43:37.799Z,1024.89
2019-02-15T13:44:37.812Z,1024.88
2019-02-15T13:45:37.799Z,1024.87
2019-02-15T13:46:37.802Z,1024.89
2019-02-15T13:47:37.785Z,1024.82
2019-02-15T13:48:37.985Z,1024.84
2019-02-15T13:49:37.786Z,1024.79
2019-02-15T13:50:37.786Z,1024.81
2019-02-15T13:51:37.789Z,1024.80
2019-02-15T13:52:37.768Z,1024.78
2019-02-15T13:53:37.993Z,1024.77
2019-02-15T13:54:38.555Z,1024.76
2019-02-15T13:55:37.758Z,1024.74
2019-02-15T13:56:37.756Z,1024.72
2019-02-15T13:57:37.745Z,1024.71
2019-02-15T13:58:37.744Z,1024.73
2019-02-15T13:59:39.147Z,1024.67
2019-02-15T14:00:37.966Z,1024.69
2019-02-15T14:01:37.742Z,1024.69
2019-02-15T14:02:37.747Z,1024.62
2019-02-15T14:03:37.942Z,1024.63
2019-02-15T14:04:37.721Z,1024.62
2019-02-15T14:05:37.924Z,1024.62
2019-02-15T14:06:37.933Z,1024.58
2019-02-15T14:07:37.713Z,1024.61
2019-02-15T14:08:37.716Z,1024.55
2019-02-15T14:09:37.918Z,1024.55
2019-02-15T14:10:37.902Z,1024.58
2019-02-15T14:11:37.697Z,1024.55
2019-02-15T14:12:37.693Z,1024.55
2019-02-15T14:13:37.697Z,1024.54
2019-02-15T14:14:37.686Z,1024.52
2019-02-15T14:15:37.680Z,1024.48
2019-02-15T14:16:37.678Z,1024.48
2019-02-15T14:17:44.385Z,1024.45
2019-02-15T14:18:37.679Z,1024.42
2019-02-15T14:19:37.689Z,1024.41
2019-02-15T14:20:37.677Z,1024.40
2019-02-15T14:21:44.142Z,1024.39
2019-02-15T14:22:37.682Z,1024.42
2019-02-15T14:23:37.880Z,1024.39
2019-02-15T14:24:37.660Z,1024.41
2019-02-15T14:25:37.670Z,1024.37
2019-02-15T14:26:37.658Z,1024.38
2019-02-15T14:27:37.868Z,1024.34
2019-02-15T14:28:37.645Z,1024.37
2019-02-15T14:29:37.647Z,1024.37
2019-02-15T14:30:37.666Z,1024.35
2019-02-15T14:31:37.844Z,1024.34
2019-02-15T14:32:37.642Z,1024.34
2019-02-15T14:33:37.621Z,1024.33
2019-02-15T14:34:37.821Z,1024.30
2019-02-15T14:35:37.626Z,1024.33
2019-02-15T14:36:37.610Z,1024.29
2019-02-15T14:37:37.613Z,1024.30
2019-02-15T14:38:37.619Z,1024.28
2019-02-15T14:39:37.603Z,1024.26
2019-02-15T14:40:37.598Z,1024.24
2019-02-15T14:41:37.603Z,1024.27
2019-02-15T14:42:37.591Z,1024.25
2019-02-15T14:43:37.596Z,1024.22
2019-02-15T14:44:37.583Z,1024.24
2019-02-15T14:45:37.594Z,1024.22
2019-02-15T14:46:37.609Z,1024.17
2019-02-15T14:47:37.573Z,1024.17